CheckWX is a tool to help pilots better visualize weather data.  It is not intended as a substitute for an official pre-flight weather briefing.

06:26:46 UTC

KAAS METAR
Taylor County Airport
Campbellsville, Kentucky, USA
Current

12 mins ago

KAAS 070615Z AUTO 04005KT 7SM OVC013 06/03 A3033 RMK AO1
Observed
Dec-7 @ 06:15 UTC
Wind
  • 040° at 5 KTS
Visibility
7 SM
Flight Rules
MVFR
Cloud Levels
  • Overcast at 1,300' AGL
Temperature
C / 43°F
Dewpoint
C / 37°F
Humidity
81%
Altimeter
30.33" Hg
Pressure
1027.12 hPa
Previous

32 mins ago

KAAS 070555Z AUTO 04005KT 7SM OVC011 06/03 A3033 RMK AO1
Observed
Dec-7 @ 05:55 UTC
Wind
  • 040° at 5 KTS
Visibility
7 SM
Flight Rules
MVFR
Cloud Levels
  • Overcast at 1,100' AGL
Temperature
C / 43°F
Dewpoint
C / 37°F
Humidity
81%
Altimeter
30.33" Hg
Pressure
1027.12 hPa
Previous

52 mins ago

KAAS 070535Z AUTO 02004KT 5SM OVC011 06/04 A3033 RMK AO1
Observed
Dec-7 @ 05:35 UTC
Wind
  • 020° at 4 KTS
Visibility
5 SM
Flight Rules
MVFR
Cloud Levels
  • Overcast at 1,100' AGL
Temperature
C / 43°F
Dewpoint
C / 39°F
Humidity
87%
Altimeter
30.33" Hg
Pressure
1027.12 hPa